createdAt,value
2023-01-23T00:01:43.732Z,97.67
2023-01-23T00:04:14.374Z,95.08
2023-01-23T00:06:43.845Z,94.58
2023-01-23T00:09:11.780Z,95.27
2023-01-23T00:11:39.994Z,94.00
2023-01-23T00:14:07.894Z,93.44
2023-01-23T00:16:35.824Z,95.12
2023-01-23T00:19:03.804Z,94.29
2023-01-23T00:21:31.938Z,94.62
2023-01-23T00:24:02.721Z,94.44
2023-01-23T00:26:33.700Z,95.38
2023-01-23T00:29:02.109Z,94.66
2023-01-23T00:31:32.069Z,95.79
2023-01-23T00:34:02.318Z,96.83
2023-01-23T00:36:31.575Z,94.74
2023-01-23T00:39:01.071Z,99.69
2023-01-23T00:41:29.882Z,100.00
2023-01-23T00:43:57.780Z,100.00
2023-01-23T00:46:26.240Z,98.94
2023-01-23T00:48:54.137Z,100.00
2023-01-23T00:51:22.046Z,98.53
2023-01-23T00:53:49.809Z,97.69
2023-01-23T00:56:18.996Z,95.54
2023-01-23T00:58:46.779Z,96.74
2023-01-23T01:01:16.129Z,97.98
2023-01-23T01:03:45.786Z,96.98
2023-01-23T01:06:16.850Z,96.35
2023-01-23T01:08:45.726Z,95.33
2023-01-23T01:11:15.426Z,95.43
2023-01-23T01:13:45.565Z,96.75
2023-01-23T01:16:15.706Z,95.91
2023-01-23T01:18:45.168Z,96.86
2023-01-23T01:21:18.889Z,96.67
2023-01-23T01:23:47.510Z,97.76
2023-01-23T01:26:18.920Z,97.56
2023-01-23T01:28:50.858Z,95.82
2023-01-23T01:31:19.562Z,95.82
2023-01-23T01:33:49.372Z,95.75
2023-01-23T01:36:21.364Z,95.42
2023-01-23T01:38:50.436Z,95.48
2023-01-23T01:41:18.831Z,93.52
2023-01-23T01:43:49.438Z,96.10
2023-01-23T01:46:24.520Z,94.38
2023-01-23T01:49:06.022Z,94.61
2023-01-23T01:51:38.544Z,97.76
2023-01-23T01:54:13.565Z,93.78
2023-01-23T01:56:47.668Z,95.55
2023-01-23T01:59:41.191Z,95.64
2023-01-23T02:02:14.286Z,93.27
2023-01-23T02:04:53.233Z,94.39
2023-01-23T02:07:26.999Z,93.84
2023-01-23T02:09:58.011Z,94.06
2023-01-23T02:12:28.277Z,93.64
2023-01-23T02:15:00.902Z,95.12
2023-01-23T02:17:29.199Z,95.20
2023-01-23T02:20:04.981Z,94.99
2023-01-23T02:22:44.093Z,93.38
2023-01-23T02:25:21.121Z,92.63
2023-01-23T02:27:52.759Z,92.79
2023-01-23T02:30:22.614Z,93.59
2023-01-23T02:32:53.147Z,94.28
2023-01-23T02:35:26.466Z,94.07
2023-01-23T02:38:01.697Z,98.70
2023-01-23T02:40:33.671Z,98.97
2023-01-23T02:43:05.944Z,96.38
2023-01-23T02:45:38.894Z,98.40
2023-01-23T02:48:08.283Z,98.26
2023-01-23T02:50:39.412Z,97.59
2023-01-23T02:53:08.046Z,97.37
2023-01-23T02:55:39.912Z,100.00
2023-01-23T02:58:27.361Z,97.83
2023-01-23T03:00:56.766Z,98.64
2023-01-23T03:03:25.796Z,96.25
2023-01-23T03:05:55.711Z,94.53
2023-01-23T03:08:36.097Z,92.91
2023-01-23T03:11:06.071Z,96.11
2023-01-23T03:13:36.622Z,95.96
2023-01-23T03:16:06.932Z,96.27
2023-01-23T03:18:49.157Z,94.99
2023-01-23T03:21:22.534Z,93.48
2023-01-23T03:23:51.762Z,94.06
2023-01-23T03:26:21.090Z,93.59
2023-01-23T03:29:10.735Z,93.96
2023-01-23T03:31:39.914Z,93.81
2023-01-23T03:34:08.034Z,93.83
2023-01-23T03:36:39.733Z,94.83
2023-01-23T03:39:27.024Z,94.61
2023-01-23T03:41:56.927Z,96.24
2023-01-23T03:44:29.487Z,97.13
2023-01-23T03:46:58.234Z,96.11
2023-01-23T03:49:27.016Z,95.73
2023-01-23T03:52:00.851Z,95.39
2023-01-23T03:54:33.567Z,95.39
2023-01-23T03:57:06.727Z,94.92
2023-01-23T03:59:51.505Z,92.31
2023-01-23T04:02:22.244Z,91.96
2023-01-23T04:04:50.897Z,92.21
2023-01-23T04:07:20.796Z,91.37
2023-01-23T04:09:51.585Z,90.64
2023-01-23T04:12:21.298Z,92.85
2023-01-23T04:14:55.744Z,91.90
2023-01-23T04:17:23.707Z,92.49
2023-01-23T04:19:53.518Z,91.90
2023-01-23T04:22:22.719Z,91.35
2023-01-23T04:24:52.818Z,88.27
2023-01-23T04:27:22.381Z,89.26
2023-01-23T04:29:54.456Z,89.26
2023-01-23T04:32:23.767Z,88.35
2023-01-23T04:34:54.916Z,85.97
2023-01-23T04:37:24.223Z,84.93
2023-01-23T04:39:52.890Z,86.94
2023-01-23T04:42:27.721Z,86.93
2023-01-23T04:45:19.420Z,87.25
2023-01-23T04:47:47.323Z,86.47
2023-01-23T04:50:16.978Z,84.46
2023-01-23T04:52:47.173Z,86.19
2023-01-23T04:55:15.074Z,86.57
2023-01-23T04:57:45.117Z,86.06
2023-01-23T05:00:24.620Z,86.21
2023-01-23T05:02:53.541Z,85.61
2023-01-23T05:05:22.584Z,84.02
2023-01-23T05:07:53.888Z,83.08
2023-01-23T05:10:22.981Z,83.67
2023-01-23T05:12:52.680Z,84.11
2023-01-23T05:15:22.293Z,84.55
2023-01-23T05:17:53.171Z,85.44
2023-01-23T05:20:23.449Z,84.67
2023-01-23T05:22:54.575Z,84.80
2023-01-23T05:25:31.119Z,85.47
2023-01-23T05:28:00.748Z,86.47
2023-01-23T05:30:28.851Z,86.87
2023-01-23T05:33:13.606Z,86.98
2023-01-23T05:35:42.030Z,87.08
2023-01-23T05:38:11.463Z,87.82
2023-01-23T05:40:39.487Z,88.14
2023-01-23T05:43:15.090Z,87.04
2023-01-23T05:46:03.885Z,85.97
2023-01-23T05:48:44.898Z,85.85
2023-01-23T05:51:16.960Z,87.21
2023-01-23T05:53:47.356Z,86.81
2023-01-23T05:56:17.109Z,83.74
2023-01-23T05:59:05.706Z,83.12
2023-01-23T06:01:43.201Z,82.45
2023-01-23T06:04:31.339Z,82.59
2023-01-23T06:07:22.666Z,83.18
2023-01-23T06:09:54.212Z,82.31
2023-01-23T06:12:23.861Z,82.68
2023-01-23T06:14:53.916Z,82.43
2023-01-23T06:17:22.383Z,83.28
2023-01-23T06:19:52.765Z,83.49
2023-01-23T06:22:23.168Z,82.67
2023-01-23T06:25:03.926Z,82.80
2023-01-23T06:27:32.206Z,80.89
2023-01-23T06:30:05.536Z,82.87
2023-01-23T06:32:38.125Z,82.46
2023-01-23T06:35:09.587Z,81.57
2023-01-23T06:37:41.394Z,81.78
2023-01-23T06:40:13.906Z,83.49
2023-01-23T06:42:48.210Z,83.74
2023-01-23T06:45:17.469Z,87.73
2023-01-23T06:47:46.679Z,88.60
2023-01-23T06:50:18.243Z,87.86
2023-01-23T06:52:47.154Z,87.33
2023-01-23T06:55:15.311Z,85.47
2023-01-23T06:57:45.373Z,87.95
2023-01-23T07:00:15.256Z,87.33
2023-01-23T07:02:45.642Z,87.06
2023-01-23T07:05:14.823Z,86.80
2023-01-23T07:07:49.449Z,86.02
2023-01-23T07:10:17.999Z,87.07
2023-01-23T07:12:46.675Z,86.18
2023-01-23T07:15:14.690Z,86.29
2023-01-23T07:17:44.529Z,84.81
2023-01-23T07:20:14.262Z,84.18
2023-01-23T07:22:48.065Z,84.35
2023-01-23T07:25:16.232Z,87.12
2023-01-23T07:27:44.312Z,86.72
2023-01-23T07:30:13.879Z,88.23
2023-01-23T07:32:56.317Z,88.45
2023-01-23T07:35:24.311Z,89.51
2023-01-23T07:37:53.851Z,90.54
2023-01-23T07:40:23.204Z,90.16
2023-01-23T07:42:53.659Z,89.13
2023-01-23T07:45:27.634Z,88.17
2023-01-23T07:47:56.527Z,87.34
2023-01-23T07:50:28.619Z,86.50
2023-01-23T07:52:59.496Z,83.86
2023-01-23T07:55:29.058Z,83.02
2023-01-23T07:57:58.127Z,84.60
2023-01-23T08:00:32.028Z,87.36
2023-01-23T08:03:00.210Z,86.46
2023-01-23T08:05:28.133Z,85.94
2023-01-23T08:08:12.192Z,86.02
2023-01-23T08:10:41.303Z,86.78
2023-01-23T08:13:11.968Z,86.53
2023-01-23T08:15:40.151Z,86.38
2023-01-23T08:18:08.448Z,83.96
2023-01-23T08:20:36.376Z,83.46
2023-01-23T08:23:06.697Z,82.12
2023-01-23T08:25:35.080Z,83.36
2023-01-23T08:28:03.579Z,83.87
2023-01-23T08:30:31.967Z,82.04
2023-01-23T08:33:02.590Z,80.12
2023-01-23T08:35:30.968Z,80.44
2023-01-23T08:37:58.935Z,80.33
2023-01-23T08:40:30.170Z,80.22
2023-01-23T08:43:01.059Z,81.84
2023-01-23T08:45:28.946Z,85.06
2023-01-23T08:47:58.955Z,85.93
2023-01-23T08:50:27.139Z,85.43
2023-01-23T08:52:56.027Z,81.68
2023-01-23T08:55:23.970Z,79.46
2023-01-23T08:57:53.261Z,78.25
2023-01-23T09:00:22.869Z,77.53
2023-01-23T09:02:52.014Z,78.60
2023-01-23T09:05:20.439Z,78.02
2023-01-23T09:07:49.717Z,79.34
2023-01-23T09:10:18.249Z,79.69
2023-01-23T09:12:46.651Z,79.98
2023-01-23T09:15:17.511Z,79.95
2023-01-23T09:17:45.885Z,78.60
2023-01-23T09:20:13.925Z,78.50
2023-01-23T09:22:43.036Z,81.85
2023-01-23T09:25:17.185Z,82.38
2023-01-23T09:27:46.258Z,80.60
2023-01-23T09:30:18.486Z,78.33
2023-01-23T09:32:48.025Z,77.71
2023-01-23T09:35:18.028Z,76.16
2023-01-23T09:38:20.813Z,76.01
2023-01-23T09:40:56.393Z,75.52
2023-01-23T09:43:29.967Z,73.53
2023-01-23T09:46:08.900Z,75.96
2023-01-23T09:48:49.145Z,74.31
2023-01-23T09:51:28.857Z,74.34
2023-01-23T09:54:06.580Z,75.92
2023-01-23T09:56:43.499Z,77.00
2023-01-23T09:59:17.149Z,81.32
2023-01-23T10:01:46.866Z,77.83
2023-01-23T10:04:20.500Z,76.62
2023-01-23T10:07:19.009Z,77.20
2023-01-23T10:10:06.925Z,76.72
2023-01-23T10:12:50.402Z,75.36
2023-01-23T10:15:29.149Z,73.85
2023-01-23T10:18:12.372Z,73.59
2023-01-23T10:20:59.196Z,73.15
2023-01-23T10:23:43.018Z,71.99
2023-01-23T10:26:17.150Z,71.93
2023-01-23T10:28:47.794Z,70.85
2023-01-23T10:31:30.962Z,70.37
2023-01-23T10:34:13.205Z,74.58
2023-01-23T10:36:54.951Z,74.68
2023-01-23T10:39:28.487Z,73.75
2023-01-23T10:42:02.466Z,75.21
2023-01-23T10:44:31.973Z,76.39
2023-01-23T10:47:03.975Z,75.26
2023-01-23T10:49:41.428Z,77.29
2023-01-23T10:52:36.150Z,77.39
2023-01-23T10:55:07.697Z,77.85
2023-01-23T10:57:48.603Z,77.24
2023-01-23T11:00:23.616Z,77.22
2023-01-23T11:02:52.629Z,78.51
2023-01-23T11:05:50.620Z,77.68
2023-01-23T11:08:29.175Z,78.04
2023-01-23T11:11:19.872Z,77.51
2023-01-23T11:14:10.548Z,78.05
2023-01-23T11:16:39.365Z,77.35
2023-01-23T11:19:19.202Z,76.82
2023-01-23T11:21:57.285Z,77.82
2023-01-23T11:24:39.828Z,77.10
2023-01-23T11:27:20.223Z,77.18
2023-01-23T11:30:04.301Z,77.78
2023-01-23T11:32:36.330Z,78.82
2023-01-23T11:35:13.543Z,79.68
2023-01-23T11:37:43.611Z,77.76
2023-01-23T11:40:15.049Z,78.52
2023-01-23T11:42:46.202Z,78.38
2023-01-23T11:45:19.906Z,77.00
2023-01-23T11:48:10.735Z,76.59
2023-01-23T11:50:54.823Z,75.65
2023-01-23T11:53:42.288Z,77.12
2023-01-23T11:56:29.560Z,78.20
2023-01-23T11:59:24.663Z,79.51
2023-01-23T12:02:07.955Z,77.67
2023-01-23T12:05:01.521Z,76.72
2023-01-23T12:07:30.616Z,75.93
2023-01-23T12:10:09.134Z,74.25
2023-01-23T12:12:52.565Z,72.44
2023-01-23T12:15:32.988Z,74.10
2023-01-23T12:18:08.570Z,75.05
2023-01-23T12:20:49.339Z,73.64
2023-01-23T12:23:36.434Z,72.41
2023-01-23T12:26:14.810Z,72.28
2023-01-23T12:29:01.375Z,73.14
2023-01-23T12:31:48.910Z,71.91
2023-01-23T12:34:41.286Z,71.90
2023-01-23T12:37:30.593Z,72.03
2023-01-23T12:40:11.163Z,74.58
2023-01-23T12:42:48.782Z,74.55
2023-01-23T12:45:23.234Z,74.74
2023-01-23T12:48:00.927Z,76.00
2023-01-23T12:50:42.321Z,74.57
2023-01-23T12:53:13.460Z,73.59
2023-01-23T12:55:52.915Z,76.06
2023-01-23T12:58:24.940Z,76.20
2023-01-23T13:01:07.117Z,74.47
2023-01-23T13:03:52.989Z,71.69
2023-01-23T13:06:36.163Z,73.71
2023-01-23T13:09:17.798Z,75.35
2023-01-23T13:11:57.220Z,76.07
2023-01-23T13:15:03.489Z,73.24
2023-01-23T13:17:39.840Z,72.05
2023-01-23T13:20:48.296Z,69.38
2023-01-23T13:23:40.419Z,70.09
2023-01-23T13:26:29.215Z,73.35
2023-01-23T13:29:01.523Z,73.86
2023-01-23T13:31:45.211Z,72.30
2023-01-23T13:34:38.181Z,73.18
2023-01-23T13:37:34.263Z,72.75
2023-01-23T13:40:16.335Z,72.60
2023-01-23T13:42:44.657Z,72.42
2023-01-23T13:45:27.492Z,71.97
2023-01-23T14:20:46.372Z,81.56
2023-01-23T14:23:27.041Z,81.26
2023-01-23T14:25:54.813Z,83.18
2023-01-23T14:28:22.633Z,83.19
2023-01-23T14:30:59.668Z,81.99
2023-01-23T14:33:28.158Z,83.70
2023-01-23T14:35:57.486Z,84.18
2023-01-23T14:38:35.051Z,82.37
2023-01-23T14:41:07.294Z,80.09
2023-01-23T14:43:37.615Z,79.56
2023-01-23T14:46:09.535Z,80.47
2023-01-23T14:48:42.812Z,81.38
2023-01-23T14:51:19.865Z,81.04
2023-01-23T14:54:00.650Z,84.94
2023-01-23T14:56:32.958Z,83.11
2023-01-23T14:59:04.225Z,83.18
2023-01-23T15:01:35.546Z,84.45
2023-01-23T15:04:05.073Z,82.43
2023-01-23T15:06:35.495Z,81.48
2023-01-23T15:09:15.355Z,81.37
2023-01-23T15:11:44.796Z,82.82
2023-01-23T15:14:25.684Z,85.21
2023-01-23T15:17:01.201Z,83.61
2023-01-23T15:19:29.753Z,83.46
2023-01-23T15:22:09.307Z,83.25
2023-01-23T15:24:38.886Z,84.18
2023-01-23T15:27:24.332Z,84.28
2023-01-23T15:29:52.640Z,82.62
2023-01-23T15:32:26.440Z,82.29
2023-01-23T15:34:57.581Z,83.71
2023-01-23T15:37:27.569Z,84.44
2023-01-23T15:40:01.933Z,83.35
2023-01-23T15:42:32.250Z,83.31
2023-01-23T15:45:01.916Z,83.52
2023-01-23T15:47:30.632Z,82.44
2023-01-23T15:50:01.359Z,83.69
2023-01-23T15:52:31.186Z,84.28
2023-01-23T15:55:04.016Z,84.43
2023-01-23T15:57:31.831Z,84.04
2023-01-23T16:00:00.280Z,83.33
2023-01-23T16:02:31.615Z,85.70
2023-01-23T16:05:01.818Z,87.48
2023-01-23T16:07:34.676Z,85.45
2023-01-23T16:10:06.227Z,85.37
2023-01-23T16:12:35.482Z,83.16
2023-01-23T16:15:03.361Z,82.47
2023-01-23T16:17:31.073Z,82.95
2023-01-23T16:19:58.793Z,83.80
2023-01-23T16:22:29.503Z,84.41
2023-01-23T16:24:58.690Z,83.36
2023-01-23T16:27:28.195Z,82.71
2023-01-23T16:29:56.818Z,82.16
2023-01-23T16:32:25.015Z,81.90
2023-01-23T16:34:52.988Z,80.40
2023-01-23T16:37:20.860Z,81.60
2023-01-23T16:39:48.706Z,84.54
2023-01-23T16:42:20.375Z,84.03
2023-01-23T16:44:49.795Z,84.14
2023-01-23T16:47:17.668Z,84.71
2023-01-23T16:49:54.218Z,84.59
2023-01-23T16:52:26.033Z,83.93
2023-01-23T16:54:55.404Z,84.06
2023-01-23T16:57:24.541Z,84.36
2023-01-23T16:59:56.196Z,83.54
2023-01-23T17:02:28.264Z,82.07
2023-01-23T17:04:56.085Z,80.55
2023-01-23T17:07:23.874Z,81.40
2023-01-23T17:09:51.761Z,82.02
2023-01-23T17:12:22.908Z,81.36
2023-01-23T17:14:52.559Z,79.17
2023-01-23T17:17:28.713Z,80.41
2023-01-23T17:19:57.519Z,82.45
2023-01-23T17:22:30.347Z,85.29
2023-01-23T17:24:58.176Z,85.46
2023-01-23T17:27:25.967Z,85.87
2023-01-23T17:29:53.683Z,84.41
2023-01-23T17:32:30.455Z,83.85
2023-01-23T17:35:01.807Z,83.81
2023-01-23T17:37:30.922Z,82.80
2023-01-23T17:39:58.657Z,79.85
2023-01-23T17:42:26.541Z,80.70
2023-01-23T17:44:54.302Z,80.26
2023-01-23T17:47:22.148Z,79.51
2023-01-23T17:49:54.492Z,80.86
2023-01-23T17:52:22.723Z,81.90
2023-01-23T17:54:51.172Z,82.06
2023-01-23T17:57:19.070Z,82.52
2023-01-23T17:59:46.773Z,81.71
2023-01-23T18:02:25.479Z,79.92
2023-01-23T18:04:54.960Z,79.75
2023-01-23T18:07:22.807Z,80.42
2023-01-23T18:09:50.672Z,83.33
2023-01-23T18:12:30.028Z,82.91
2023-01-23T18:15:06.064Z,84.35
2023-01-23T18:17:38.640Z,83.88
2023-01-23T18:20:21.286Z,81.99
2023-01-23T18:22:50.171Z,82.15
2023-01-23T18:25:20.007Z,85.44
2023-01-23T18:27:51.505Z,84.25
2023-01-23T18:30:29.063Z,82.09
2023-01-23T18:33:29.176Z,81.13
2023-01-23T18:36:30.583Z,81.65
2023-01-23T18:39:19.122Z,83.85
2023-01-23T18:42:00.460Z,84.60
2023-01-23T18:44:38.131Z,85.38
2023-01-23T18:47:12.089Z,84.28
2023-01-23T18:49:41.184Z,84.48
2023-01-23T18:52:31.232Z,82.67
2023-01-23T18:55:19.745Z,82.32
2023-01-23T18:58:05.489Z,83.52
2023-01-23T19:00:41.719Z,82.83
2023-01-23T19:03:29.495Z,84.33
2023-01-23T19:06:01.640Z,85.17
2023-01-23T19:08:32.728Z,84.41
2023-01-23T19:11:06.078Z,85.94
2023-01-23T19:13:43.872Z,85.42
2023-01-23T19:16:18.527Z,84.87
2023-01-23T19:18:48.328Z,84.00
2023-01-23T19:21:20.318Z,83.43
2023-01-23T19:23:57.023Z,86.06
2023-01-23T19:26:27.662Z,85.33
2023-01-23T19:28:56.222Z,84.42
2023-01-23T19:31:26.672Z,85.15
2023-01-23T19:33:55.629Z,84.45
2023-01-23T19:36:24.325Z,84.02
2023-01-23T19:39:00.330Z,83.42
2023-01-23T19:41:35.903Z,84.06
2023-01-23T19:44:03.779Z,83.94
2023-01-23T19:46:33.662Z,86.14
2023-01-23T19:49:03.928Z,86.31
2023-01-23T19:51:33.566Z,86.99
2023-01-23T19:54:03.447Z,86.55
2023-01-23T19:56:31.527Z,86.70
2023-01-23T19:58:59.537Z,87.42
2023-01-23T20:01:37.162Z,89.23
2023-01-23T20:04:06.313Z,88.29
2023-01-23T20:06:34.365Z,87.68
2023-01-23T20:09:03.887Z,88.07
2023-01-23T20:11:31.814Z,88.09
2023-01-23T20:13:59.546Z,87.79
2023-01-23T20:16:27.689Z,89.46
2023-01-23T20:18:56.109Z,87.14
2023-01-23T20:21:25.337Z,87.33
2023-01-23T20:23:53.520Z,87.92
2023-01-23T20:26:22.705Z,87.05
2023-01-23T20:28:53.210Z,86.34
2023-01-23T20:31:22.244Z,88.86
2023-01-23T20:33:50.358Z,90.29
2023-01-23T20:36:18.247Z,86.86
2023-01-23T20:38:46.439Z,86.45
2023-01-23T20:41:16.663Z,86.66
2023-01-23T20:43:46.457Z,84.81
2023-01-23T20:46:15.572Z,86.84
2023-01-23T20:48:45.285Z,86.02
2023-01-23T20:51:15.099Z,84.92
2023-01-23T20:53:43.921Z,85.31
2023-01-23T20:56:13.563Z,85.40
2023-01-23T20:59:00.838Z,84.77
2023-01-23T21:01:52.505Z,83.36
2023-01-23T21:04:20.870Z,83.42
2023-01-23T21:06:49.057Z,81.88
2023-01-23T21:09:18.395Z,82.70
2023-01-23T21:11:46.790Z,84.84
2023-01-23T21:14:15.003Z,84.67
2023-01-23T21:16:44.465Z,85.85
2023-01-23T21:19:12.352Z,87.92
2023-01-23T21:21:40.789Z,87.06
2023-01-23T21:24:09.215Z,85.16
2023-01-23T21:26:38.606Z,83.93
2023-01-23T21:29:07.046Z,83.53
2023-01-23T21:31:39.229Z,81.99
2023-01-23T21:34:19.409Z,83.67
2023-01-23T21:36:48.419Z,83.66
2023-01-23T21:39:17.122Z,83.80
2023-01-23T21:41:45.487Z,84.56
2023-01-23T21:44:14.048Z,85.51
2023-01-23T21:46:42.033Z,85.52
2023-01-23T21:49:10.279Z,84.16
2023-01-23T21:51:39.443Z,83.54
2023-01-23T21:54:07.427Z,83.93
2023-01-23T21:56:35.188Z,85.14
2023-01-23T21:59:03.092Z,85.82
2023-01-23T22:01:33.761Z,84.02
2023-01-23T22:04:03.423Z,85.27
2023-01-23T22:06:31.745Z,85.29
2023-01-23T22:09:00.905Z,84.30
2023-01-23T22:11:29.028Z,84.88
2023-01-23T22:13:57.077Z,85.83
2023-01-23T22:16:40.190Z,85.09
2023-01-23T22:19:14.729Z,82.65
2023-01-23T22:21:43.698Z,83.29
2023-01-23T22:24:13.024Z,82.23
2023-01-23T22:26:40.883Z,83.33
2023-01-23T22:29:08.964Z,83.41
2023-01-23T22:31:36.855Z,83.55
2023-01-23T22:34:04.741Z,83.23
2023-01-23T22:36:32.566Z,82.93
2023-01-23T22:39:00.465Z,82.85
2023-01-23T22:41:29.595Z,83.57
2023-01-23T22:43:59.167Z,85.20
2023-01-23T22:46:27.271Z,85.04
2023-01-23T22:48:55.155Z,84.03
2023-01-23T22:51:25.549Z,85.54
2023-01-23T22:53:54.816Z,86.42
2023-01-23T22:56:23.029Z,86.05
2023-01-23T22:58:54.295Z,86.57
2023-01-23T23:01:23.522Z,86.82
2023-01-23T23:03:52.160Z,85.08
2023-01-23T23:06:20.955Z,84.89
2023-01-23T23:08:49.230Z,83.30
2023-01-23T23:11:19.090Z,83.18
2023-01-23T23:13:47.425Z,84.36
2023-01-23T23:16:18.700Z,83.20
2023-01-23T23:18:48.306Z,84.66
2023-01-23T23:21:18.659Z,86.89
2023-01-23T23:23:47.007Z,86.34
2023-01-23T23:26:15.399Z,85.25
2023-01-23T23:28:43.371Z,84.27
2023-01-23T23:31:11.283Z,86.53
2023-01-23T23:33:40.878Z,88.64
2023-01-23T23:36:09.508Z,85.31
2023-01-23T23:38:37.966Z,84.33
2023-01-23T23:41:09.394Z,87.87
2023-01-23T23:43:37.203Z,85.73
2023-01-23T23:46:08.676Z,82.81
2023-01-23T23:48:38.391Z,84.01
2023-01-23T23:51:09.534Z,84.44
2023-01-23T23:53:37.714Z,83.43
2023-01-23T23:56:06.910Z,83.57
2023-01-23T23:58:37.004Z,84.77
